sensor_id;sensor_type;location;lat;lon;timestamp;temperature;humidity
16408;DHT22;8313;49.894;8.084;2022-12-15T00:00:50;0.10;99.90
16408;DHT22;8313;49.894;8.084;2022-12-15T00:03:34;0.10;99.90
16408;DHT22;8313;49.894;8.084;2022-12-15T00:06:18;0.10;99.90
16408;DHT22;8313;49.894;8.084;2022-12-15T00:09:03;0.10;99.90
16408;DHT22;8313;49.894;8.084;2022-12-15T00:11:48;0.10;99.90
16408;DHT22;8313;49.894;8.084;2022-12-15T00:14:32;0.10;99.90
16408;DHT22;8313;49.894;8.084;2022-12-15T00:17:17;0.10;99.90
16408;DHT22;8313;49.894;8.084;2022-12-15T00:20:01;0.10;99.90
16408;DHT22;8313;49.894;8.084;2022-12-15T00:22:46;0.10;99.90
16408;DHT22;8313;49.894;8.084;2022-12-15T00:25:30;0.10;99.90
16408;DHT22;8313;49.894;8.084;2022-12-15T00:28:14;0.10;99.90
16408;DHT22;8313;49.894;8.084;2022-12-15T00:30:58;0.10;99.90
16408;DHT22;8313;49.894;8.084;2022-12-15T00:33:43;0.10;99.90
16408;DHT22;8313;49.894;8.084;2022-12-15T00:36:27;0.00;99.90
16408;DHT22;8313;49.894;8.084;2022-12-15T00:39:11;0.00;99.90
16408;DHT22;8313;49.894;8.084;2022-12-15T00:41:37;0.10;99.90
16408;DHT22;8313;49.894;8.084;2022-12-15T00:44:03;0.10;99.90
16408;DHT22;8313;49.894;8.084;2022-12-15T00:46:29;0.10;99.90
16408;DHT22;8313;49.894;8.084;2022-12-15T00:49:13;0.10;99.90
16408;DHT22;8313;49.894;8.084;2022-12-15T00:52:17;0.00;99.90
16408;DHT22;8313;49.894;8.084;2022-12-15T00:55:03;0.00;99.90
16408;DHT22;8313;49.894;8.084;2022-12-15T00:57:48;0.10;99.90
16408;DHT22;8313;49.894;8.084;2022-12-15T01:00:33;0.10;99.90
16408;DHT22;8313;49.894;8.084;2022-12-15T01:03:19;0.10;99.90
16408;DHT22;8313;49.894;8.084;2022-12-15T01:06:09;0.10;99.90
16408;DHT22;8313;49.894;8.084;2022-12-15T01:08:53;0.10;99.90
16408;DHT22;8313;49.894;8.084;2022-12-15T01:11:38;0.00;99.90
16408;DHT22;8313;49.894;8.084;2022-12-15T01:14:22;-0.10;99.90
16408;DHT22;8313;49.894;8.084;2022-12-15T01:17:06;-0.20;99.90
16408;DHT22;8313;49.894;8.084;2022-12-15T01:19:50;-0.10;99.90
16408;DHT22;8313;49.894;8.084;2022-12-15T01:22:36;-0.10;99.90
16408;DHT22;8313;49.894;8.084;2022-12-15T01:25:03;-0.10;99.90
16408;DHT22;8313;49.894;8.084;2022-12-15T01:27:28;-0.10;99.90
16408;DHT22;8313;49.894;8.084;2022-12-15T01:29:54;-0.10;99.90
16408;DHT22;8313;49.894;8.084;2022-12-15T01:32:20;-0.10;99.90
16408;DHT22;8313;49.894;8.084;2022-12-15T01:34:46;-0.10;99.90
16408;DHT22;8313;49.894;8.084;2022-12-15T01:37:11;-0.10;99.90
16408;DHT22;8313;49.894;8.084;2022-12-15T01:39:37;-0.10;99.90
16408;DHT22;8313;49.894;8.084;2022-12-15T01:42:29;-0.10;99.90
16408;DHT22;8313;49.894;8.084;2022-12-15T01:45:36;-0.10;99.90
16408;DHT22;8313;49.894;8.084;2022-12-15T01:48:12;-0.10;99.90
16408;DHT22;8313;49.894;8.084;2022-12-15T01:51:08;-0.20;99.90
16408;DHT22;8313;49.894;8.084;2022-12-15T01:53:44;-0.30;99.90
16408;DHT22;8313;49.894;8.084;2022-12-15T01:56:12;-0.20;99.90
16408;DHT22;8313;49.894;8.084;2022-12-15T01:58:41;-0.20;99.90
16408;DHT22;8313;49.894;8.084;2022-12-15T02:01:08;-0.20;99.90
16408;DHT22;8313;49.894;8.084;2022-12-15T02:03:34;-0.20;99.90
16408;DHT22;8313;49.894;8.084;2022-12-15T02:06:00;-0.20;99.90
16408;DHT22;8313;49.894;8.084;2022-12-15T02:08:28;-0.20;99.90
16408;DHT22;8313;49.894;8.084;2022-12-15T02:11:20;-0.20;99.90
16408;DHT22;8313;49.894;8.084;2022-12-15T02:16:31;-0.20;99.90
16408;DHT22;8313;49.894;8.084;2022-12-15T02:19:17;-0.30;99.90
16408;DHT22;8313;49.894;8.084;2022-12-15T02:35:56;-0.30;99.90
16408;DHT22;8313;49.894;8.084;2022-12-15T02:38:34;-0.30;99.90
16408;DHT22;8313;49.894;8.084;2022-12-15T02:41:03;-0.30;99.90
16408;DHT22;8313;49.894;8.084;2022-12-15T02:43:32;-0.30;99.90
16408;DHT22;8313;49.894;8.084;2022-12-15T02:48:46;-0.40;99.90
16408;DHT22;8313;49.894;8.084;2022-12-15T02:51:46;-0.40;99.90
16408;DHT22;8313;49.894;8.084;2022-12-15T03:00:08;-0.50;99.90
16408;DHT22;8313;49.894;8.084;2022-12-15T03:02:38;-0.50;99.90
16408;DHT22;8313;49.894;8.084;2022-12-15T03:05:05;-0.50;99.90
16408;DHT22;8313;49.894;8.084;2022-12-15T03:07:32;-0.60;99.90
16408;DHT22;8313;49.894;8.084;2022-12-15T03:09:59;-0.60;99.90
16408;DHT22;8313;49.894;8.084;2022-12-15T03:12:25;-0.60;99.90
16408;DHT22;8313;49.894;8.084;2022-12-15T03:14:52;-0.60;99.90
16408;DHT22;8313;49.894;8.084;2022-12-15T03:17:17;-0.60;99.90
16408;DHT22;8313;49.894;8.084;2022-12-15T03:19:43;-0.70;99.90
16408;DHT22;8313;49.894;8.084;2022-12-15T03:22:09;-0.80;99.90
16408;DHT22;8313;49.894;8.084;2022-12-15T03:24:34;-0.80;99.90
16408;DHT22;8313;49.894;8.084;2022-12-15T03:27:00;-0.80;99.90
16408;DHT22;8313;49.894;8.084;2022-12-15T03:29:26;-0.80;99.90
16408;DHT22;8313;49.894;8.084;2022-12-15T03:31:51;-0.80;99.90
16408;DHT22;8313;49.894;8.084;2022-12-15T03:34:17;-0.80;99.90
16408;DHT22;8313;49.894;8.084;2022-12-15T03:36:43;-0.80;99.90
16408;DHT22;8313;49.894;8.084;2022-12-15T03:39:09;-0.80;99.90
16408;DHT22;8313;49.894;8.084;2022-12-15T03:41:34;-0.80;99.90
16408;DHT22;8313;49.894;8.084;2022-12-15T03:44:00;-0.80;99.90
16408;DHT22;8313;49.894;8.084;2022-12-15T03:46:26;-0.80;99.90
16408;DHT22;8313;49.894;8.084;2022-12-15T03:48:52;-0.80;99.90
16408;DHT22;8313;49.894;8.084;2022-12-15T03:51:19;-0.80;99.90
16408;DHT22;8313;49.894;8.084;2022-12-15T03:53:44;-0.80;99.90
16408;DHT22;8313;49.894;8.084;2022-12-15T03:56:12;-0.80;99.90
16408;DHT22;8313;49.894;8.084;2022-12-15T03:58:38;-0.80;99.90
16408;DHT22;8313;49.894;8.084;2022-12-15T04:03:47;-0.90;99.90
16408;DHT22;8313;49.894;8.084;2022-12-15T04:06:13;-0.90;99.90
16408;DHT22;8313;49.894;8.084;2022-12-15T04:08:38;-0.90;99.90
16408;DHT22;8313;49.894;8.084;2022-12-15T04:11:04;-0.90;99.90
16408;DHT22;8313;49.894;8.084;2022-12-15T04:13:30;-0.90;99.90
16408;DHT22;8313;49.894;8.084;2022-12-15T04:15:55;-0.90;99.90
16408;DHT22;8313;49.894;8.084;2022-12-15T04:18:21;-0.90;99.90
16408;DHT22;8313;49.894;8.084;2022-12-15T04:20:47;-0.90;99.90
16408;DHT22;8313;49.894;8.084;2022-12-15T04:23:13;-0.90;99.90
16408;DHT22;8313;49.894;8.084;2022-12-15T04:25:38;-1.20;99.90
16408;DHT22;8313;49.894;8.084;2022-12-15T04:28:23;-1.10;99.90
16408;DHT22;8313;49.894;8.084;2022-12-15T04:31:15;-1.00;99.90
16408;DHT22;8313;49.894;8.084;2022-12-15T04:34:04;-1.00;99.90
16408;DHT22;8313;49.894;8.084;2022-12-15T04:36:51;-1.00;99.90
16408;DHT22;8313;49.894;8.084;2022-12-15T04:39:38;-1.00;99.90
16408;DHT22;8313;49.894;8.084;2022-12-15T04:42:23;-1.00;99.90
16408;DHT22;8313;49.894;8.084;2022-12-15T04:45:08;-1.00;99.90
16408;DHT22;8313;49.894;8.084;2022-12-15T04:47:53;-1.10;99.90
16408;DHT22;8313;49.894;8.084;2022-12-15T04:50:37;-1.10;99.90
16408;DHT22;8313;49.894;8.084;2022-12-15T04:53:23;-1.10;99.90
16408;DHT22;8313;49.894;8.084;2022-12-15T04:56:12;-1.10;99.90
16408;DHT22;8313;49.894;8.084;2022-12-15T04:58:57;-1.10;99.90
16408;DHT22;8313;49.894;8.084;2022-12-15T05:01:41;-1.20;99.90
16408;DHT22;8313;49.894;8.084;2022-12-15T05:04:26;-1.30;99.90
16408;DHT22;8313;49.894;8.084;2022-12-15T05:07:10;-1.30;99.90
16408;DHT22;8313;49.894;8.084;2022-12-15T05:09:55;-1.20;99.90
16408;DHT22;8313;49.894;8.084;2022-12-15T05:12:39;-1.20;99.90
16408;DHT22;8313;49.894;8.084;2022-12-15T05:15:23;-1.20;99.90
16408;DHT22;8313;49.894;8.084;2022-12-15T05:18:08;-1.20;99.90
16408;DHT22;8313;49.894;8.084;2022-12-15T05:20:52;-1.30;99.90
16408;DHT22;8313;49.894;8.084;2022-12-15T05:23:36;-1.30;99.90
16408;DHT22;8313;49.894;8.084;2022-12-15T05:26:21;-1.30;99.90
16408;DHT22;8313;49.894;8.084;2022-12-15T05:29:05;-1.30;99.90
16408;DHT22;8313;49.894;8.084;2022-12-15T05:31:49;-1.30;99.90
16408;DHT22;8313;49.894;8.084;2022-12-15T05:34:21;-1.30;99.90
16408;DHT22;8313;49.894;8.084;2022-12-15T05:36:48;-1.30;99.90
16408;DHT22;8313;49.894;8.084;2022-12-15T05:39:13;-1.30;99.90
16408;DHT22;8313;49.894;8.084;2022-12-15T05:41:39;-1.30;99.90
16408;DHT22;8313;49.894;8.084;2022-12-15T05:44:05;-1.40;99.90
16408;DHT22;8313;49.894;8.084;2022-12-15T05:46:31;-1.40;99.90
16408;DHT22;8313;49.894;8.084;2022-12-15T05:49:02;-1.40;99.90
16408;DHT22;8313;49.894;8.084;2022-12-15T05:51:29;-1.40;99.90
16408;DHT22;8313;49.894;8.084;2022-12-15T05:53:54;-1.50;99.90
16408;DHT22;8313;49.894;8.084;2022-12-15T05:56:20;-1.50;99.90
16408;DHT22;8313;49.894;8.084;2022-12-15T05:58:46;-1.50;99.90
16408;DHT22;8313;49.894;8.084;2022-12-15T06:01:14;-1.40;99.90
16408;DHT22;8313;49.894;8.084;2022-12-15T06:03:41;-1.50;99.90
16408;DHT22;8313;49.894;8.084;2022-12-15T06:06:07;-1.50;99.90
16408;DHT22;8313;49.894;8.084;2022-12-15T06:08:36;-1.50;99.90
16408;DHT22;8313;49.894;8.084;2022-12-15T06:11:03;-1.50;99.90
16408;DHT22;8313;49.894;8.084;2022-12-15T06:13:30;-1.50;99.90
16408;DHT22;8313;49.894;8.084;2022-12-15T06:15:56;-1.50;99.90
16408;DHT22;8313;49.894;8.084;2022-12-15T06:18:23;-1.50;99.90
16408;DHT22;8313;49.894;8.084;2022-12-15T06:20:48;-1.50;99.90
16408;DHT22;8313;49.894;8.084;2022-12-15T06:23:14;-1.50;99.90
16408;DHT22;8313;49.894;8.084;2022-12-15T06:25:40;-1.50;99.90
16408;DHT22;8313;49.894;8.084;2022-12-15T06:28:05;-1.50;99.90
16408;DHT22;8313;49.894;8.084;2022-12-15T06:30:31;-1.50;99.90
16408;DHT22;8313;49.894;8.084;2022-12-15T06:32:57;-1.70;99.90
16408;DHT22;8313;49.894;8.084;2022-12-15T06:35:22;-1.70;99.90
16408;DHT22;8313;49.894;8.084;2022-12-15T06:37:48;-1.60;99.90
16408;DHT22;8313;49.894;8.084;2022-12-15T06:40:14;-1.50;99.90
16408;DHT22;8313;49.894;8.084;2022-12-15T06:42:39;-1.50;99.90
16408;DHT22;8313;49.894;8.084;2022-12-15T06:45:05;-1.50;99.90
16408;DHT22;8313;49.894;8.084;2022-12-15T06:47:32;-1.40;99.90
16408;DHT22;8313;49.894;8.084;2022-12-15T06:49:58;-1.40;99.90
16408;DHT22;8313;49.894;8.084;2022-12-15T06:52:23;-1.40;99.90
16408;DHT22;8313;49.894;8.084;2022-12-15T06:54:49;-1.40;99.90
16408;DHT22;8313;49.894;8.084;2022-12-15T06:57:15;-1.40;99.90
16408;DHT22;8313;49.894;8.084;2022-12-15T06:59:41;-1.40;99.90
16408;DHT22;8313;49.894;8.084;2022-12-15T07:02:17;-1.40;99.90
16408;DHT22;8313;49.894;8.084;2022-12-15T07:04:43;-1.40;99.90
16408;DHT22;8313;49.894;8.084;2022-12-15T07:07:09;-1.40;99.90
16408;DHT22;8313;49.894;8.084;2022-12-15T07:09:35;-1.40;99.90
16408;DHT22;8313;49.894;8.084;2022-12-15T07:12:00;-1.40;99.90
16408;DHT22;8313;49.894;8.084;2022-12-15T07:14:26;-1.40;99.90
16408;DHT22;8313;49.894;8.084;2022-12-15T07:16:52;-1.30;99.90
16408;DHT22;8313;49.894;8.084;2022-12-15T07:19:18;-1.30;99.90
16408;DHT22;8313;49.894;8.084;2022-12-15T07:21:43;-1.30;99.90
16408;DHT22;8313;49.894;8.084;2022-12-15T07:24:10;-1.30;99.90
16408;DHT22;8313;49.894;8.084;2022-12-15T07:26:38;-1.40;99.90
16408;DHT22;8313;49.894;8.084;2022-12-15T07:29:03;-1.40;99.90
16408;DHT22;8313;49.894;8.084;2022-12-15T07:31:29;-1.40;99.90
16408;DHT22;8313;49.894;8.084;2022-12-15T07:33:57;-1.30;99.90
16408;DHT22;8313;49.894;8.084;2022-12-15T07:36:23;-1.40;99.90
16408;DHT22;8313;49.894;8.084;2022-12-15T07:38:49;-1.30;99.90
16408;DHT22;8313;49.894;8.084;2022-12-15T07:41:15;-1.30;99.90
16408;DHT22;8313;49.894;8.084;2022-12-15T07:43:40;-1.30;99.90
16408;DHT22;8313;49.894;8.084;2022-12-15T07:46:06;-1.30;99.90
16408;DHT22;8313;49.894;8.084;2022-12-15T07:48:33;-1.40;99.90
16408;DHT22;8313;49.894;8.084;2022-12-15T07:51:04;-1.40;99.90
16408;DHT22;8313;49.894;8.084;2022-12-15T07:53:30;-1.40;99.90
16408;DHT22;8313;49.894;8.084;2022-12-15T07:55:57;-1.30;99.90
16408;DHT22;8313;49.894;8.084;2022-12-15T07:58:27;-1.30;99.90
16408;DHT22;8313;49.894;8.084;2022-12-15T08:00:57;-1.30;99.90
16408;DHT22;8313;49.894;8.084;2022-12-15T08:03:23;-1.30;99.90
16408;DHT22;8313;49.894;8.084;2022-12-15T08:05:49;-1.30;99.90
16408;DHT22;8313;49.894;8.084;2022-12-15T08:08:15;-1.30;99.90
16408;DHT22;8313;49.894;8.084;2022-12-15T08:10:41;-1.30;99.90
16408;DHT22;8313;49.894;8.084;2022-12-15T08:13:07;-1.30;99.90
16408;DHT22;8313;49.894;8.084;2022-12-15T08:15:34;-1.40;99.90
16408;DHT22;8313;49.894;8.084;2022-12-15T08:18:01;-1.40;99.90
16408;DHT22;8313;49.894;8.084;2022-12-15T08:20:27;-1.40;99.90
16408;DHT22;8313;49.894;8.084;2022-12-15T08:22:53;-1.40;99.90
16408;DHT22;8313;49.894;8.084;2022-12-15T08:25:19;-1.50;99.90
16408;DHT22;8313;49.894;8.084;2022-12-15T08:27:44;-1.50;99.90
16408;DHT22;8313;49.894;8.084;2022-12-15T08:30:10;-1.50;99.90
16408;DHT22;8313;49.894;8.084;2022-12-15T08:32:36;-1.50;99.90
16408;DHT22;8313;49.894;8.084;2022-12-15T08:35:02;-1.40;99.90
16408;DHT22;8313;49.894;8.084;2022-12-15T08:37:27;-1.40;99.90
16408;DHT22;8313;49.894;8.084;2022-12-15T08:39:53;-1.40;99.90
16408;DHT22;8313;49.894;8.084;2022-12-15T08:42:18;-1.40;99.90
16408;DHT22;8313;49.894;8.084;2022-12-15T08:44:47;-1.40;99.90
16408;DHT22;8313;49.894;8.084;2022-12-15T08:47:13;-1.40;99.90
16408;DHT22;8313;49.894;8.084;2022-12-15T08:49:39;-1.50;99.90
16408;DHT22;8313;49.894;8.084;2022-12-15T08:52:04;-1.40;99.90
16408;DHT22;8313;49.894;8.084;2022-12-15T08:54:30;-1.40;99.90
16408;DHT22;8313;49.894;8.084;2022-12-15T08:56:57;-1.30;99.90
16408;DHT22;8313;49.894;8.084;2022-12-15T08:59:22;-1.40;99.90
16408;DHT22;8313;49.894;8.084;2022-12-15T09:01:48;-1.40;99.90
16408;DHT22;8313;49.894;8.084;2022-12-15T09:04:13;-1.40;99.90
16408;DHT22;8313;49.894;8.084;2022-12-15T09:06:40;-1.50;99.90
16408;DHT22;8313;49.894;8.084;2022-12-15T09:09:07;-1.40;99.90
16408;DHT22;8313;49.894;8.084;2022-12-15T09:11:33;-1.40;99.90
16408;DHT22;8313;49.894;8.084;2022-12-15T09:13:59;-1.30;99.90
16408;DHT22;8313;49.894;8.084;2022-12-15T09:16:25;-1.30;99.90
16408;DHT22;8313;49.894;8.084;2022-12-15T09:18:54;-1.40;99.90
16408;DHT22;8313;49.894;8.084;2022-12-15T09:21:21;-1.50;99.90
16408;DHT22;8313;49.894;8.084;2022-12-15T09:23:48;-1.50;99.90
16408;DHT22;8313;49.894;8.084;2022-12-15T09:26:16;-1.40;99.90
16408;DHT22;8313;49.894;8.084;2022-12-15T09:28:42;-1.40;99.90
16408;DHT22;8313;49.894;8.084;2022-12-15T09:31:13;-1.50;99.90
16408;DHT22;8313;49.894;8.084;2022-12-15T09:33:41;-1.50;99.90
16408;DHT22;8313;49.894;8.084;2022-12-15T09:36:08;-1.50;99.90
16408;DHT22;8313;49.894;8.084;2022-12-15T09:38:36;-1.50;99.90
16408;DHT22;8313;49.894;8.084;2022-12-15T09:44:04;-1.50;99.90
16408;DHT22;8313;49.894;8.084;2022-12-15T09:52:30;-1.30;99.90
16408;DHT22;8313;49.894;8.084;2022-12-15T09:54:57;-1.30;99.90
16408;DHT22;8313;49.894;8.084;2022-12-15T10:03:27;-1.30;99.90
16408;DHT22;8313;49.894;8.084;2022-12-15T10:06:12;-1.30;99.90
16408;DHT22;8313;49.894;8.084;2022-12-15T10:11:24;-1.30;99.90
16408;DHT22;8313;49.894;8.084;2022-12-15T10:14:03;-1.30;99.90
16408;DHT22;8313;49.894;8.084;2022-12-15T10:16:52;-1.30;99.90
16408;DHT22;8313;49.894;8.084;2022-12-15T10:21:58;-1.50;99.90
16408;DHT22;8313;49.894;8.084;2022-12-15T10:24:28;-1.50;99.90
16408;DHT22;8313;49.894;8.084;2022-12-15T10:29:42;-1.30;99.90
16408;DHT22;8313;49.894;8.084;2022-12-15T10:32:23;-1.20;99.90
16408;DHT22;8313;49.894;8.084;2022-12-15T10:34:52;-1.20;99.90
16408;DHT22;8313;49.894;8.084;2022-12-15T10:37:19;-1.20;99.90
16408;DHT22;8313;49.894;8.084;2022-12-15T10:39:47;-1.20;99.90
16408;DHT22;8313;49.894;8.084;2022-12-15T10:42:17;-1.20;99.90
16408;DHT22;8313;49.894;8.084;2022-12-15T10:44:50;-1.20;99.90
16408;DHT22;8313;49.894;8.084;2022-12-15T10:47:19;-1.20;99.90
16408;DHT22;8313;49.894;8.084;2022-12-15T10:49:45;-1.20;99.90
16408;DHT22;8313;49.894;8.084;2022-12-15T10:52:19;-1.10;99.90
16408;DHT22;8313;49.894;8.084;2022-12-15T10:54:48;-1.20;99.90
16408;DHT22;8313;49.894;8.084;2022-12-15T10:57:26;-1.20;99.90
16408;DHT22;8313;49.894;8.084;2022-12-15T10:59:53;-1.20;99.90
16408;DHT22;8313;49.894;8.084;2022-12-15T11:04:56;-1.20;99.90
16408;DHT22;8313;49.894;8.084;2022-12-15T11:07:22;-1.20;99.90
16408;DHT22;8313;49.894;8.084;2022-12-15T11:09:49;-1.30;99.90
16408;DHT22;8313;49.894;8.084;2022-12-15T11:12:19;-1.40;99.90
16408;DHT22;8313;49.894;8.084;2022-12-15T11:20:42;-1.30;99.90
16408;DHT22;8313;49.894;8.084;2022-12-15T11:23:28;-1.30;99.90
16408;DHT22;8313;49.894;8.084;2022-12-15T11:26:04;-1.20;99.90
16408;DHT22;8313;49.894;8.084;2022-12-15T11:28:47;-1.20;99.90
16408;DHT22;8313;49.894;8.084;2022-12-15T11:33:47;-1.20;99.90
16408;DHT22;8313;49.894;8.084;2022-12-15T11:38:50;-1.30;99.90
16408;DHT22;8313;49.894;8.084;2022-12-15T11:56:41;-1.10;99.90
16408;DHT22;8313;49.894;8.084;2022-12-15T12:07:15;-1.10;99.90
16408;DHT22;8313;49.894;8.084;2022-12-15T12:17:44;-1.20;99.90
16408;DHT22;8313;49.894;8.084;2022-12-15T12:20:16;-1.20;99.90
16408;DHT22;8313;49.894;8.084;2022-12-15T12:23:00;-1.30;99.90
16408;DHT22;8313;49.894;8.084;2022-12-15T12:25:32;-1.20;99.90
16408;DHT22;8313;49.894;8.084;2022-12-15T12:28:04;-1.20;99.90
16408;DHT22;8313;49.894;8.084;2022-12-15T12:30:37;-1.20;99.90
16408;DHT22;8313;49.894;8.084;2022-12-15T12:35:46;-1.20;99.90
16408;DHT22;8313;49.894;8.084;2022-12-15T12:38:16;-1.10;99.90
16408;DHT22;8313;49.894;8.084;2022-12-15T12:43:32;-1.20;99.90
16408;DHT22;8313;49.894;8.084;2022-12-15T12:46:03;-1.10;99.90
16408;DHT22;8313;49.894;8.084;2022-12-15T12:53:37;-1.10;99.90
16408;DHT22;8313;49.894;8.084;2022-12-15T12:56:03;-1.00;99.90
16408;DHT22;8313;49.894;8.084;2022-12-15T12:58:39;-0.90;99.90
16408;DHT22;8313;49.894;8.084;2022-12-15T13:03:44;-0.90;99.90
16408;DHT22;8313;49.894;8.084;2022-12-15T13:06:26;-0.90;99.90
16408;DHT22;8313;49.894;8.084;2022-12-15T13:09:36;-0.90;99.90
16408;DHT22;8313;49.894;8.084;2022-12-15T13:12:03;-0.90;99.90
16408;DHT22;8313;49.894;8.084;2022-12-15T13:14:41;-0.80;99.90
16408;DHT22;8313;49.894;8.084;2022-12-15T13:17:31;-0.80;99.90
16408;DHT22;8313;49.894;8.084;2022-12-15T13:22:35;-0.80;99.90
16408;DHT22;8313;49.894;8.084;2022-12-15T13:25:35;-0.80;99.90
16408;DHT22;8313;49.894;8.084;2022-12-15T13:36:10;-0.70;99.90
16408;DHT22;8313;49.894;8.084;2022-12-15T13:38:55;-0.70;99.90
16408;DHT22;8313;49.894;8.084;2022-12-15T13:41:22;-0.70;99.90
16408;DHT22;8313;49.894;8.084;2022-12-15T13:43:50;-0.70;99.90
16408;DHT22;8313;49.894;8.084;2022-12-15T13:46:26;-0.70;99.90
16408;DHT22;8313;49.894;8.084;2022-12-15T13:52:10;-0.70;99.90
16408;DHT22;8313;49.894;8.084;2022-12-15T13:54:39;-0.70;99.90
16408;DHT22;8313;49.894;8.084;2022-12-15T13:57:15;-0.70;99.90
16408;DHT22;8313;49.894;8.084;2022-12-15T13:59:47;-0.70;99.90
16408;DHT22;8313;49.894;8.084;2022-12-15T14:02:35;-0.70;99.90
16408;DHT22;8313;49.894;8.084;2022-12-15T14:12:48;-0.70;99.90
16408;DHT22;8313;49.894;8.084;2022-12-15T14:15:15;-0.70;99.90
16408;DHT22;8313;49.894;8.084;2022-12-15T14:17:47;-0.70;99.90
16408;DHT22;8313;49.894;8.084;2022-12-15T14:20:20;-0.70;99.90
16408;DHT22;8313;49.894;8.084;2022-12-15T14:22:47;-0.70;99.90
16408;DHT22;8313;49.894;8.084;2022-12-15T14:25:19;-0.70;99.90
16408;DHT22;8313;49.894;8.084;2022-12-15T14:27:45;-0.70;99.90
16408;DHT22;8313;49.894;8.084;2022-12-15T14:30:24;-0.60;99.90
16408;DHT22;8313;49.894;8.084;2022-12-15T14:33:08;-0.70;99.90
16408;DHT22;8313;49.894;8.084;2022-12-15T14:35:39;-0.60;99.90
16408;DHT22;8313;49.894;8.084;2022-12-15T14:38:11;-0.60;99.90
16408;DHT22;8313;49.894;8.084;2022-12-15T14:40:40;-0.60;99.90
16408;DHT22;8313;49.894;8.084;2022-12-15T14:43:14;-0.60;99.90
16408;DHT22;8313;49.894;8.084;2022-12-15T14:45:42;-0.60;99.90
16408;DHT22;8313;49.894;8.084;2022-12-15T14:48:13;-0.60;99.90
16408;DHT22;8313;49.894;8.084;2022-12-15T14:50:46;-0.60;99.90
16408;DHT22;8313;49.894;8.084;2022-12-15T14:53:17;-0.60;99.90
16408;DHT22;8313;49.894;8.084;2022-12-15T14:55:45;-0.60;99.90
16408;DHT22;8313;49.894;8.084;2022-12-15T14:58:33;-0.60;99.90
16408;DHT22;8313;49.894;8.084;2022-12-15T15:01:00;-0.60;99.90
16408;DHT22;8313;49.894;8.084;2022-12-15T15:08:48;-0.60;99.90
16408;DHT22;8313;49.894;8.084;2022-12-15T15:11:28;-0.60;99.90
16408;DHT22;8313;49.894;8.084;2022-12-15T15:13:59;-0.60;99.90
16408;DHT22;8313;49.894;8.084;2022-12-15T15:16:25;-0.60;99.90
16408;DHT22;8313;49.894;8.084;2022-12-15T15:18:53;-0.60;99.90
16408;DHT22;8313;49.894;8.084;2022-12-15T15:21:22;-0.60;99.90
16408;DHT22;8313;49.894;8.084;2022-12-15T15:26:33;-0.50;99.90
16408;DHT22;8313;49.894;8.084;2022-12-15T15:28:59;-0.50;99.90
16408;DHT22;8313;49.894;8.084;2022-12-15T15:33:52;-0.50;99.90
16408;DHT22;8313;49.894;8.084;2022-12-15T15:36:20;-0.50;99.90
16408;DHT22;8313;49.894;8.084;2022-12-15T15:38:47;-0.50;99.90
16408;DHT22;8313;49.894;8.084;2022-12-15T15:43:42;-0.50;99.90
16408;DHT22;8313;49.894;8.084;2022-12-15T15:46:32;-0.60;99.90
16408;DHT22;8313;49.894;8.084;2022-12-15T15:49:01;-0.60;99.90
16408;DHT22;8313;49.894;8.084;2022-12-15T15:51:29;-0.60;99.90
16408;DHT22;8313;49.894;8.084;2022-12-15T15:53:59;-0.60;99.90
16408;DHT22;8313;49.894;8.084;2022-12-15T15:56:26;-0.60;99.90
16408;DHT22;8313;49.894;8.084;2022-12-15T15:58:52;-0.60;99.90
16408;DHT22;8313;49.894;8.084;2022-12-15T16:01:18;-0.60;99.90
16408;DHT22;8313;49.894;8.084;2022-12-15T16:03:44;-0.70;99.90
16408;DHT22;8313;49.894;8.084;2022-12-15T16:06:18;-0.70;99.90
16408;DHT22;8313;49.894;8.084;2022-12-15T16:08:49;-0.70;99.90
16408;DHT22;8313;49.894;8.084;2022-12-15T16:11:15;-0.70;99.90
16408;DHT22;8313;49.894;8.084;2022-12-15T16:13:41;-0.70;99.90
16408;DHT22;8313;49.894;8.084;2022-12-15T16:16:29;-0.70;99.90
16408;DHT22;8313;49.894;8.084;2022-12-15T16:18:55;-0.70;99.90
16408;DHT22;8313;49.894;8.084;2022-12-15T16:21:24;-0.70;99.90
16408;DHT22;8313;49.894;8.084;2022-12-15T16:23:50;-0.80;99.90
16408;DHT22;8313;49.894;8.084;2022-12-15T16:26:29;-0.80;99.90
16408;DHT22;8313;49.894;8.084;2022-12-15T16:28:55;-0.80;99.90
16408;DHT22;8313;49.894;8.084;2022-12-15T16:31:34;-0.70;99.90
16408;DHT22;8313;49.894;8.084;2022-12-15T16:34:04;-0.70;99.90
16408;DHT22;8313;49.894;8.084;2022-12-15T16:36:32;-0.70;99.90
16408;DHT22;8313;49.894;8.084;2022-12-15T16:38:59;-0.70;99.90
16408;DHT22;8313;49.894;8.084;2022-12-15T16:41:25;-0.70;99.90
16408;DHT22;8313;49.894;8.084;2022-12-15T16:43:52;-0.60;99.90
16408;DHT22;8313;49.894;8.084;2022-12-15T16:46:18;-0.70;99.90
16408;DHT22;8313;49.894;8.084;2022-12-15T16:48:44;-0.60;99.90
16408;DHT22;8313;49.894;8.084;2022-12-15T16:51:33;-0.70;99.90
16408;DHT22;8313;49.894;8.084;2022-12-15T16:53:59;-0.70;99.90
16408;DHT22;8313;49.894;8.084;2022-12-15T16:56:24;-0.70;99.90
16408;DHT22;8313;49.894;8.084;2022-12-15T16:58:50;-0.70;99.90
16408;DHT22;8313;49.894;8.084;2022-12-15T17:01:16;-0.70;99.90
16408;DHT22;8313;49.894;8.084;2022-12-15T17:03:41;-0.70;99.90
16408;DHT22;8313;49.894;8.084;2022-12-15T17:06:07;-0.70;99.90
16408;DHT22;8313;49.894;8.084;2022-12-15T17:08:42;-0.70;99.90
16408;DHT22;8313;49.894;8.084;2022-12-15T17:11:21;-0.70;99.90
16408;DHT22;8313;49.894;8.084;2022-12-15T17:13:48;-0.70;99.90
16408;DHT22;8313;49.894;8.084;2022-12-15T17:16:21;-0.70;99.90
16408;DHT22;8313;49.894;8.084;2022-12-15T17:18:48;-0.70;99.90
16408;DHT22;8313;49.894;8.084;2022-12-15T17:21:18;-0.70;99.90
16408;DHT22;8313;49.894;8.084;2022-12-15T17:23:48;-0.60;99.90
16408;DHT22;8313;49.894;8.084;2022-12-15T17:26:21;-0.60;99.90
16408;DHT22;8313;49.894;8.084;2022-12-15T17:28:48;-0.70;99.90
16408;DHT22;8313;49.894;8.084;2022-12-15T17:31:19;-0.70;99.90
16408;DHT22;8313;49.894;8.084;2022-12-15T17:33:46;-0.70;99.90
16408;DHT22;8313;49.894;8.084;2022-12-15T17:36:21;-0.90;99.90
16408;DHT22;8313;49.894;8.084;2022-12-15T17:38:54;-0.80;99.90
16408;DHT22;8313;49.894;8.084;2022-12-15T17:41:20;-0.80;99.90
16408;DHT22;8313;49.894;8.084;2022-12-15T17:43:45;-0.90;99.90
16408;DHT22;8313;49.894;8.084;2022-12-15T17:46:11;-0.90;99.90
16408;DHT22;8313;49.894;8.084;2022-12-15T17:48:37;-0.90;99.90
16408;DHT22;8313;49.894;8.084;2022-12-15T17:51:13;-0.90;99.90
16408;DHT22;8313;49.894;8.084;2022-12-15T17:53:40;-0.90;99.90
16408;DHT22;8313;49.894;8.084;2022-12-15T17:56:09;-0.80;99.90
16408;DHT22;8313;49.894;8.084;2022-12-15T17:58:35;-0.90;99.90
16408;DHT22;8313;49.894;8.084;2022-12-15T18:01:00;-0.80;99.90
16408;DHT22;8313;49.894;8.084;2022-12-15T18:03:26;-0.80;99.90
16408;DHT22;8313;49.894;8.084;2022-12-15T18:05:52;-0.80;99.90
16408;DHT22;8313;49.894;8.084;2022-12-15T18:08:23;-0.80;99.90
16408;DHT22;8313;49.894;8.084;2022-12-15T18:10:54;-0.80;99.90
16408;DHT22;8313;49.894;8.084;2022-12-15T18:13:26;-0.80;99.90
16408;DHT22;8313;49.894;8.084;2022-12-15T18:15:54;-0.80;99.90
16408;DHT22;8313;49.894;8.084;2022-12-15T18:18:21;-0.80;99.90
16408;DHT22;8313;49.894;8.084;2022-12-15T18:20:48;-0.80;99.90
16408;DHT22;8313;49.894;8.084;2022-12-15T18:23:15;-0.90;99.90
16408;DHT22;8313;49.894;8.084;2022-12-15T18:25:42;-0.90;99.90
16408;DHT22;8313;49.894;8.084;2022-12-15T18:28:32;-0.90;99.90
16408;DHT22;8313;49.894;8.084;2022-12-15T18:33:44;-0.90;99.90
16408;DHT22;8313;49.894;8.084;2022-12-15T18:36:10;-0.90;99.90
16408;DHT22;8313;49.894;8.084;2022-12-15T18:38:36;-0.90;99.90
16408;DHT22;8313;49.894;8.084;2022-12-15T18:41:01;-0.90;99.90